Time;durP1;ratioP1;P1;durP2;ratioP2;P2;SDS_P1;SDS_P2;PMS_P1;PMS_P2;Temp;Humidity;BMP_temperature;BMP_pressure;BME280_temperature;BME280_humidity;BME280_pressure;Samples;Min_cycle;Max_cycle;Signal;HPM_P1;HPM_P2
2022/10/01 00:00:07;;;;;;;20.60;16.20;;;;;;;10.01;89.99;100352.54;87163;1293;22861;-77
2022/10/01 00:02:34;;;;;;;26.10;16.80;;;;;;;9.98;90.04;100349.50;87187;1304;25275;-78
2022/10/01 00:04:39;;;;;;;23.50;17.40;;;;;;;9.96;89.99;100352.02;87194;1304;22502;-78
2022/10/01 00:06:45;;;;;;;18.60;16.20;;;;;;;9.94;89.98;100349.80;87225;1284;22516;-79
2022/10/01 00:08:51;;;;;;;23.10;17.40;;;;;;;9.91;89.93;100345.41;87194;1304;26896;-80
2022/10/01 00:11:00;;;;;;;22.50;16.90;;;;;;;9.87;90.02;100346.92;87202;1297;23904;-79
2022/10/01 00:13:06;;;;;;;24.70;17.90;;;;;;;9.83;90.08;100347.59;87148;1304;24273;-79
2022/10/01 00:15:13;;;;;;;22.20;17.30;;;;;;;9.80;90.11;100345.06;87184;1304;22540;-79
2022/10/01 00:17:18;;;;;;;25.20;19.00;;;;;;;9.78;90.29;100346.38;87066;1306;22488;-80
2022/10/01 00:19:24;;;;;;;25.10;19.20;;;;;;;9.75;90.30;100353.09;87048;1306;24318;-80
2022/10/01 00:21:31;;;;;;;25.40;20.10;;;;;;;9.73;90.50;100353.67;87187;1284;22481;-78
2022/10/01 00:23:37;;;;;;;22.80;18.00;;;;;;;9.73;90.53;100351.27;87175;1285;24274;-78
2022/10/01 00:25:45;;;;;;;25.30;17.80;;;;;;;9.72;90.54;100353.23;87166;1304;22464;-79
2022/10/01 00:27:51;;;;;;;28.10;21.10;;;;;;;9.71;90.81;100347.33;87136;1304;22467;-77
2022/10/01 00:29:57;;;;;;;22.80;18.00;;;;;;;9.70;90.55;100348.39;87162;1302;22478;-79
2022/10/01 00:32:02;;;;;;;23.90;18.20;;;;;;;9.69;90.78;100345.66;87103;1291;22471;-80
2022/10/01 00:34:09;;;;;;;25.40;19.90;;;;;;;9.68;90.90;100346.90;87183;1298;22498;-79
2022/10/01 00:36:14;;;;;;;25.40;19.00;;;;;;;9.68;91.05;100354.73;87187;1304;25219;-79
2022/10/01 00:38:21;;;;;;;24.70;18.60;;;;;;;9.69;91.11;100353.83;87197;1304;22884;-80
2022/10/01 00:40:27;;;;;;;24.80;20.40;;;;;;;9.70;91.31;100356.92;87108;1306;22534;-80
2022/10/01 00:42:33;;;;;;;24.80;18.90;;;;;;;9.69;91.11;100357.48;87163;1294;22487;-77
2022/10/01 00:44:39;;;;;;;24.80;19.20;;;;;;;9.69;91.31;100366.72;87091;1297;27115;-79
2022/10/01 00:46:45;;;;;;;22.80;18.90;;;;;;;9.71;91.38;100367.52;87143;1306;23997;-81
2022/10/01 00:48:57;;;;;;;28.40;20.90;;;;;;;9.73;91.50;100366.08;87188;1304;22471;-80
2022/10/01 00:51:03;;;;;;;26.50;18.80;;;;;;;9.72;91.62;100360.70;87191;1292;22642;-79
2022/10/01 00:53:11;;;;;;;22.60;19.30;;;;;;;9.72;91.56;100356.71;87180;1306;22468;-79
2022/10/01 00:55:19;;;;;;;24.80;18.90;;;;;;;9.71;91.57;100355.51;87186;1304;22466;-80
2022/10/01 00:57:25;;;;;;;27.40;19.20;;;;;;;9.70;91.34;100355.36;87243;1304;22410;-79
2022/10/01 00:59:31;;;;;;;25.90;19.80;;;;;;;9.71;91.47;100351.85;87232;1292;22456;-79
2022/10/01 01:01:38;;;;;;;27.30;19.60;;;;;;;9.69;91.56;100351.75;87204;1304;26607;-79
2022/10/01 01:03:44;;;;;;;23.90;18.30;;;;;;;9.67;91.55;100344.85;87167;1298;22472;-79
2022/10/01 01:05:49;;;;;;;23.40;18.30;;;;;;;9.67;91.65;100342.95;87108;1306;25351;-78
2022/10/01 01:07:55;;;;;;;28.60;19.70;;;;;;;9.67;91.66;100344.70;87184;1283;22462;-78
2022/10/01 01:10:01;;;;;;;25.80;18.90;;;;;;;9.66;91.78;100345.56;87068;1306;22503;-79
2022/10/01 01:12:13;;;;;;;26.60;20.90;;;;;;;9.67;91.88;100350.77;87207;1285;22479;-81
2022/10/01 01:14:22;;;;;;;23.50;19.80;;;;;;;9.66;91.79;100350.64;87165;1286;22463;-81
2022/10/01 01:16:32;;;;;;;26.20;19.10;;;;;;;9.63;91.83;100345.49;87193;1304;25950;-80
2022/10/01 01:18:42;;;;;;;21.80;19.10;;;;;;;9.61;91.78;100351.49;87076;1297;22726;-80
2022/10/01 01:20:59;;;;;;;23.40;19.70;;;;;;;9.61;92.01;100352.21;87217;1304;23853;-80
2022/10/01 01:23:21;;;;;;;26.70;20.20;;;;;;;9.61;92.12;100354.48;87181;1295;22535;-80
2022/10/01 01:25:31;;;;;;;24.90;19.40;;;;;;;9.61;92.09;100355.16;87190;1289;24122;-79
2022/10/01 01:27:39;;;;;;;26.20;18.30;;;;;;;9.62;92.18;100353.92;87198;1284;22926;-79
2022/10/01 01:29:51;;;;;;;25.50;20.10;;;;;;;9.63;92.29;100355.80;87050;1285;22513;-77
2022/10/01 01:32:01;;;;;;;23.90;19.00;;;;;;;9.63;92.18;100355.59;87183;1293;22472;-78
2022/10/01 01:34:12;;;;;;;24.30;19.50;;;;;;;9.62;92.09;100357.57;87179;1304;24260;-79
2022/10/01 01:36:18;;;;;;;;;;;;;;;9.60;92.27;100357.48;87219;1306;22490;-78
2022/10/01 01:38:27;;;;;;;23.60;17.40;;;;;;;9.58;92.48;100350.57;87156;1304;24280;-78
2022/10/01 01:40:35;;;;;;;27.80;17.80;;;;;;;9.60;92.37;100352.23;87058;1301;22465;-78
2022/10/01 01:42:41;;;;;;;30.90;20.10;;;;;;;9.62;92.49;100355.33;87099;1284;23172;-79
2022/10/01 01:44:47;;;;;;;24.80;18.10;;;;;;;9.65;92.55;100360.59;87206;1302;22470;-79
2022/10/01 01:46:55;;;;;;;21.20;18.40;;;;;;;9.67;92.52;100365.59;87194;1303;24252;-79
2022/10/01 01:49:01;;;;;;;24.30;19.10;;;;;;;9.69;92.68;100363.23;87205;1298;22510;-79
2022/10/01 01:51:10;;;;;;;26.70;20.00;;;;;;;9.69;92.44;100362.02;87193;1304;22531;-79
2022/10/01 01:53:16;;;;;;;24.30;19.90;;;;;;;9.70;92.40;100358.52;87203;1304;22601;-80
2022/10/01 01:55:22;;;;;;;31.20;20.30;;;;;;;9.67;92.31;100358.61;87110;1306;25496;-81
2022/10/01 01:57:27;;;;;;;27.60;20.10;;;;;;;9.66;92.30;100354.83;87216;1304;22465;-79
2022/10/01 01:59:33;;;;;;;23.70;19.90;;;;;;;9.66;92.43;100354.98;87184;1304;22466;-80
2022/10/01 02:01:41;;;;;;;26.90;19.70;;;;;;;9.66;92.52;100358.29;87190;1293;22470;-80
2022/10/01 02:03:46;;;;;;;28.40;20.30;;;;;;;9.67;92.59;100361.21;87215;1285;23044;-80
2022/10/01 02:06:05;;;;;;;24.70;19.80;;;;;;;9.67;92.50;100368.17;87251;1300;22474;-80
2022/10/01 02:08:26;;;;;;;28.40;19.20;;;;;;;9.66;92.37;100369.10;87168;1298;22778;-80
2022/10/01 02:10:45;;;;;;;27.70;21.50;;;;;;;9.67;92.69;100370.99;87230;1304;22671;-80
2022/10/01 02:13:00;;;;;;;24.70;19.90;;;;;;;9.67;92.71;100376.02;87211;1284;22459;-78
2022/10/01 02:15:12;;;;;;;26.00;19.60;;;;;;;9.69;92.63;100382.74;87156;1295;22453;-78
2022/10/01 02:17:24;;;;;;;26.60;20.60;;;;;;;9.71;92.66;100383.75;87235;1303;22477;-78
2022/10/01 02:19:35;;;;;;;23.10;18.40;;;;;;;9.71;92.80;100386.70;87197;1291;22455;-78
2022/10/01 02:21:44;;;;;;;25.00;20.20;;;;;;;9.72;92.64;100388.41;87235;1286;22451;-79
2022/10/01 02:23:56;;;;;;;27.80;21.60;;;;;;;9.73;92.71;100387.50;87232;1297;22997;-79
2022/10/01 02:26:08;;;;;;;28.90;22.20;;;;;;;9.74;92.80;100382.92;87235;1303;22474;-81
2022/10/01 02:28:16;;;;;;;32.50;23.60;;;;;;;9.72;92.60;100382.82;87236;1284;22488;-80
2022/10/01 02:30:25;;;;;;;28.50;21.50;;;;;;;9.69;92.58;100380.98;87233;1284;22624;-79
2022/10/01 02:32:30;;;;;;;26.80;19.70;;;;;;;9.67;92.34;100374.29;87270;1292;22458;-79
2022/10/01 02:34:36;;;;;;;23.30;19.60;;;;;;;9.64;92.25;100377.86;87193;1298;22525;-79
2022/10/01 02:36:44;;;;;;;26.10;20.70;;;;;;;9.62;92.27;100377.23;87206;1303;23679;-79
2022/10/01 02:38:50;;;;;;;27.50;21.90;;;;;;;9.62;92.21;100377.09;87222;1272;24265;-78
2022/10/01 02:40:59;;;;;;;23.40;20.30;;;;;;;9.61;92.33;100372.91;87164;1303;22460;-78
2022/10/01 02:43:08;;;;;;;30.30;21.30;;;;;;;9.60;92.22;100366.02;87209;1282;26420;-77
2022/10/01 02:45:14;;;;;;;26.70;20.10;;;;;;;9.59;92.36;100358.20;87213;1288;22541;-77
2022/10/01 02:47:22;;;;;;;27.70;21.00;;;;;;;9.59;92.49;100352.45;87205;1295;22459;-77
2022/10/01 02:49:28;;;;;;;26.60;21.50;;;;;;;9.60;92.50;100347.88;87213;1303;22547;-80
2022/10/01 02:51:40;;;;;;;29.00;23.40;;;;;;;9.60;92.52;100344.04;87254;1303;25380;-77
2022/10/01 02:53:48;;;;;;;32.10;23.20;;;;;;;9.57;92.26;100339.79;87183;1303;22500;-77
2022/10/01 02:55:54;;;;;;;23.20;19.10;;;;;;;9.55;92.35;100336.02;87189;1281;23714;-77
2022/10/01 02:58:00;;;;;;;28.80;20.60;;;;;;;9.54;92.33;100329.77;87185;1284;26554;-77
2022/10/01 03:00:14;;;;;;;24.90;19.20;;;;;;;9.51;92.14;100330.23;87211;1294;22472;-77
2022/10/01 03:02:21;;;;;;;28.70;20.90;;;;;;;9.47;92.14;100328.31;87201;1284;22510;-79
2022/10/01 03:04:26;;;;;;;28.10;21.00;;;;;;;9.44;92.27;100326.29;87196;1303;23010;-79
2022/10/01 03:06:34;;;;;;;24.00;19.10;;;;;;;9.44;92.50;100322.98;87214;1295;22743;-79
2022/10/01 03:08:40;;;;;;;23.60;19.30;;;;;;;9.45;92.54;100320.17;87106;1306;22496;-78
2022/10/01 03:10:46;;;;;;;25.50;21.50;;;;;;;9.45;92.46;100322.10;87127;1306;23862;-78
2022/10/01 03:12:52;;;;;;;29.00;22.00;;;;;;;9.44;92.53;100315.69;87187;1303;26510;-79
2022/10/01 03:14:58;;;;;;;26.20;20.60;;;;;;;9.42;92.48;100314.90;87228;1303;22502;-79
2022/10/01 03:17:05;;;;;;;30.90;22.00;;;;;;;9.41;92.69;100309.02;87132;1306;22771;-79
2022/10/01 03:19:11;;;;;;;28.40;21.60;;;;;;;9.38;92.34;100304.58;87231;1298;22470;-79
2022/10/01 03:21:16;;;;;;;31.40;21.90;;;;;;;9.36;92.47;100300.81;87215;1295;22480;-79
2022/10/01 03:23:22;;;;;;;27.20;21.60;;;;;;;9.37;92.51;100305.32;87220;1296;22523;-79
2022/10/01 03:25:28;;;;;;;24.10;19.00;;;;;;;9.36;92.40;100299.27;87190;1294;25383;-79
2022/10/01 03:27:34;;;;;;;29.60;21.30;;;;;;;9.34;92.51;100299.66;87223;1285;22488;-79
2022/10/01 03:29:39;;;;;;;22.70;19.60;;;;;;;9.34;92.68;100306.46;87232;1292;22781;-79
2022/10/01 03:31:45;;;;;;;28.00;20.40;;;;;;;9.35;92.51;100310.78;87190;1284;22451;-78
2022/10/01 03:33:51;;;;;;;29.20;21.80;;;;;;;9.34;92.71;100310.98;87187;1296;22744;-78
2022/10/01 03:35:57;;;;;;;26.10;20.80;;;;;;;9.30;92.26;100307.47;87130;1284;24233;-78
2022/10/01 03:38:02;;;;;;;30.00;22.80;;;;;;;9.26;92.45;100309.86;87216;1303;22605;-79
2022/10/01 03:40:10;;;;;;;24.70;20.30;;;;;;;9.21;92.12;100313.31;87213;1284;25280;-78
2022/10/01 03:42:18;;;;;;;24.60;21.00;;;;;;;9.16;91.99;100319.58;87220;1285;22518;-79
2022/10/01 03:44:24;;;;;;;26.80;20.30;;;;;;;9.14;92.29;100327.14;87195;1303;22478;-79
2022/10/01 03:46:29;;;;;;;26.20;20.50;;;;;;;9.11;92.16;100334.20;87221;1299;22456;-80
2022/10/01 03:48:35;;;;;;;28.00;20.80;;;;;;;9.06;91.93;100336.43;87118;1303;25930;-79
2022/10/01 03:50:43;;;;;;;22.10;18.90;;;;;;;9.00;91.95;100336.48;87233;1288;22897;-79
2022/10/01 03:52:52;;;;;;;25.00;20.80;;;;;;;8.93;91.50;100336.69;87244;1294;22476;-77
2022/10/01 03:54:59;;;;;;;24.70;19.50;;;;;;;8.84;91.34;100331.24;87221;1298;24253;-78
2022/10/01 03:57:05;;;;;;;24.00;20.40;;;;;;;8.76;91.48;100331.99;87245;1284;22466;-78
2022/10/01 03:59:11;;;;;;;28.50;21.00;;;;;;;8.70;91.52;100335.34;87226;1276;22491;-79
2022/10/01 04:01:16;;;;;;;30.70;20.30;;;;;;;8.64;91.59;100336.71;87226;1295;22467;-78
2022/10/01 04:03:22;;;;;;;26.40;21.50;;;;;;;8.61;91.67;100337.17;87225;1288;25237;-79
2022/10/01 04:05:29;;;;;;;25.60;20.20;;;;;;;8.57;91.66;100340.44;87185;1303;22582;-77
2022/10/01 04:07:34;;;;;;;25.90;19.60;;;;;;;8.52;91.40;100339.17;87224;1303;24059;-79
2022/10/01 04:09:40;;;;;;;25.40;19.50;;;;;;;8.47;91.35;100337.23;87093;1283;25605;-79
2022/10/01 04:11:46;;;;;;;22.60;18.20;;;;;;;8.39;91.04;100335.91;87235;1291;22453;-78
2022/10/01 04:13:52;;;;;;;25.00;20.00;;;;;;;8.32;90.89;100336.11;87227;1302;22502;-78
2022/10/01 04:16:00;;;;;;;30.10;19.90;;;;;;;8.22;90.75;100334.10;87113;1306;22454;-79
2022/10/01 04:18:06;;;;;;;23.60;19.40;;;;;;;8.13;90.59;100332.12;87136;1306;25274;-82
2022/10/01 04:20:12;;;;;;;26.90;20.20;;;;;;;8.04;90.58;100330.63;87109;1294;22472;-79
2022/10/01 04:22:21;;;;;;;;;;;;;;;7.96;90.48;100328.25;87245;1296;22434;-79
2022/10/01 04:24:27;;;;;;;26.50;19.80;;;;;;;7.83;90.51;100328.80;87263;1284;25134;-79
2022/10/01 04:26:33;;;;;;;24.40;18.60;;;;;;;7.74;90.43;100328.50;87235;1303;22469;-79
2022/10/01 04:28:39;;;;;;;24.50;18.40;;;;;;;7.65;90.33;100325.62;87205;1303;23755;-80
2022/10/01 04:30:46;;;;;;;27.50;17.70;;;;;;;7.59;90.53;100328.23;87223;1292;24277;-79
2022/10/01 04:32:53;;;;;;;26.90;18.10;;;;;;;7.54;90.49;100327.84;87199;1303;24386;-78
2022/10/01 04:34:59;;;;;;;21.60;17.40;;;;;;;7.49;90.42;100328.83;87220;1287;22703;-78
2022/10/01 04:37:04;;;;;;;22.80;18.70;;;;;;;7.43;90.30;100329.87;87226;1291;22828;-79
2022/10/01 04:39:10;;;;;;;23.40;18.20;;;;;;;7.36;90.39;100327.26;87185;1306;25680;-78
2022/10/01 04:41:17;;;;;;;21.20;18.20;;;;;;;7.31;90.32;100324.77;87376;1294;22523;-81
2022/10/01 04:43:24;;;;;;;29.30;20.40;;;;;;;7.24;90.28;100324.44;87373;1303;22464;-81
2022/10/01 04:45:30;;;;;;;22.30;17.90;;;;;;;7.16;90.17;100323.93;87299;1303;22490;-79
2022/10/01 04:47:37;;;;;;;26.80;19.00;;;;;;;7.10;90.29;100326.69;87333;1303;22463;-81
2022/10/01 04:49:43;;;;;;;23.20;18.50;;;;;;;7.04;90.13;100324.59;87262;1303;22475;-80
2022/10/01 04:51:49;;;;;;;26.60;19.70;;;;;;;6.96;90.04;100324.94;87348;1303;22472;-80
2022/10/01 04:53:55;;;;;;;27.20;20.60;;;;;;;6.90;90.19;100328.90;87281;1295;22966;-80
2022/10/01 04:56:02;;;;;;;24.00;18.20;;;;;;;6.86;90.31;100331.08;87195;1306;25233;-80
2022/10/01 04:58:08;;;;;;;25.00;19.60;;;;;;;6.85;90.58;100330.75;87225;1303;22714;-81
2022/10/01 05:00:17;;;;;;;22.70;17.70;;;;;;;6.82;90.67;100331.16;87227;1296;22525;-81
2022/10/01 05:02:28;;;;;;;21.20;16.80;;;;;;;6.80;90.44;100331.40;87297;1294;24264;-80
2022/10/01 05:04:33;;;;;;;26.70;17.60;;;;;;;6.77;90.34;100335.11;87161;1286;22530;-80
2022/10/01 05:06:47;;;;;;;25.10;19.90;;;;;;;6.72;90.39;100332.28;87312;1287;22465;-80
2022/10/01 05:08:53;;;;;;;23.20;18.40;;;;;;;6.67;90.38;100327.70;87330;1281;22470;-80
2022/10/01 05:11:01;;;;;;;23.20;18.80;;;;;;;6.61;90.42;100331.99;87213;1294;25267;-80
2022/10/01 05:13:16;;;;;;;24.00;19.10;;;;;;;6.58;90.63;100328.94;86622;1287;805740;-79
2022/10/01 05:15:24;;;;;;;20.10;17.20;;;;;;;6.55;90.47;100335.94;87205;1306;26646;-79
2022/10/01 05:17:31;;;;;;;24.00;18.80;;;;;;;6.53;90.76;100332.17;87272;1306;22497;-81
2022/10/01 05:19:37;;;;;;;25.60;18.60;;;;;;;6.55;91.26;100337.51;87239;1298;25334;-80
2022/10/01 05:21:43;;;;;;;25.80;19.90;;;;;;;6.60;91.54;100329.41;87244;1293;22474;-78
2022/10/01 05:23:49;;;;;;;21.30;18.00;;;;;;;6.66;91.80;100330.32;87185;1290;22491;-80
2022/10/01 05:25:55;;;;;;;24.70;19.70;;;;;;;6.70;91.92;100331.96;87181;1276;22524;-80
2022/10/01 05:28:04;;;;;;;24.60;18.60;;;;;;;6.76;91.96;100334.63;87153;1305;25611;-82
2022/10/01 05:30:11;;;;;;;24.50;18.20;;;;;;;6.80;92.13;100339.02;87186;1298;25359;-82
2022/10/01 05:32:17;;;;;;;24.20;19.00;;;;;;;6.87;92.30;100336.09;87194;1306;22463;-81
2022/10/01 05:34:22;;;;;;;23.60;18.60;;;;;;;7.11;93.09;100334.46;87151;1290;22529;-81
2022/10/01 05:36:28;;;;;;;22.60;18.60;;;;;;;7.51;93.59;100332.42;87139;1306;22709;-80
2022/10/01 05:38:36;;;;;;;23.40;18.90;;;;;;;7.86;93.47;100332.71;87245;1291;22478;-80
2022/10/01 05:40:44;;;;;;;21.70;18.20;;;;;;;8.13;93.04;100332.14;87269;1276;22464;-80
2022/10/01 05:42:50;;;;;;;29.50;19.40;;;;;;;8.33;92.30;100333.80;87214;1294;22478;-80
2022/10/01 05:44:56;;;;;;;26.00;20.40;;;;;;;8.58;91.93;100329.27;87094;1277;23873;-80
2022/10/01 05:47:02;;;;;;;24.90;20.30;;;;;;;8.94;92.55;100329.36;87172;1298;22547;-80
2022/10/01 05:49:08;;;;;;;26.20;21.20;;;;;;;9.47;93.80;100329.70;87242;1299;22414;-80
2022/10/01 05:51:15;;;;;;;26.90;20.30;;;;;;;9.87;94.07;100324.28;87194;1297;22716;-80
2022/10/01 05:53:21;;;;;;;24.10;19.10;;;;;;;10.02;96.00;100320.92;87083;1306;22822;-80
2022/10/01 05:55:33;;;;;;;25.70;18.60;;;;;;;10.13;94.75;100326.13;87131;1306;22425;-80
2022/10/01 05:57:38;;;;;;;24.30;20.10;;;;;;;10.15;92.41;100327.10;87171;1291;22547;-81
2022/10/01 05:59:44;;;;;;;24.70;21.10;;;;;;;10.17;91.23;100330.33;87159;1289;22471;-80
2022/10/01 06:01:49;;;;;;;26.10;21.30;;;;;;;10.19;91.86;100327.47;87355;1306;22468;-80
2022/10/01 06:03:55;;;;;;;24.70;18.80;;;;;;;10.21;91.48;100331.06;87296;1284;22494;-80
2022/10/01 06:06:01;;;;;;;22.70;19.00;;;;;;;10.20;91.06;100331.29;87216;1302;22467;-81
2022/10/01 06:08:08;;;;;;;24.40;18.70;;;;;;;10.23;90.47;100329.77;87168;1290;22465;-80
2022/10/01 06:10:14;;;;;;;24.60;19.70;;;;;;;10.19;90.33;100326.59;87156;1290;22459;-80
2022/10/01 06:12:20;;;;;;;24.10;20.30;;;;;;;10.17;90.29;100326.16;87223;1287;22413;-80
2022/10/01 06:14:29;;;;;;;21.00;18.30;;;;;;;10.14;89.84;100322.23;87145;1297;22590;-80
2022/10/01 06:16:35;;;;;;;23.60;19.50;;;;;;;10.15;89.74;100321.54;87318;1303;22487;-81
2022/10/01 06:18:41;;;;;;;23.80;19.60;;;;;;;10.12;89.72;100320.23;87754;1285;22489;-80
2022/10/01 06:20:46;;;;;;;22.20;19.70;;;;;;;10.09;89.55;100317.21;87665;1306;22477;-80
2022/10/01 06:22:56;;;;;;;24.40;19.70;;;;;;;10.06;89.23;100313.50;87358;1306;22492;-81
2022/10/01 06:25:03;;;;;;;27.50;19.60;;;;;;;10.03;89.15;100313.59;87272;1290;22487;-80
2022/10/01 06:27:10;;;;;;;25.60;20.10;;;;;;;10.02;89.28;100313.98;87223;1281;22465;-81
2022/10/01 06:29:16;;;;;;;26.30;20.50;;;;;;;10.04;89.49;100311.27;87175;1292;26493;-79
2022/10/01 06:31:22;;;;;;;24.80;20.70;;;;;;;10.08;89.80;100313.22;87173;1306;24335;-79
2022/10/01 06:33:28;;;;;;;25.40;20.10;;;;;;;10.13;90.08;100312.52;87056;1306;23236;-80
2022/10/01 06:35:36;;;;;;;28.70;19.60;;;;;;;10.18;90.41;100307.98;87199;1288;25975;-80
2022/10/01 06:37:41;;;;;;;23.10;19.40;;;;;;;10.23;90.38;100307.80;87173;1280;22484;-80
2022/10/01 06:39:47;;;;;;;24.80;21.10;;;;;;;10.29;90.49;100311.27;87166;1306;22531;-80
2022/10/01 06:41:53;;;;;;;27.40;20.70;;;;;;;10.37;90.64;100307.84;87167;1298;22470;-80
2022/10/01 06:44:02;;;;;;;23.40;20.80;;;;;;;10.45;90.83;100305.41;87146;1287;22546;-80
2022/10/01 06:46:09;;;;;;;27.00;19.90;;;;;;;10.53;90.88;100303.70;87156;1304;22477;-80
2022/10/01 06:48:17;;;;;;;28.80;20.70;;;;;;;10.62;91.04;100300.59;87275;1281;22924;-80
2022/10/01 06:50:23;;;;;;;27.20;20.40;;;;;;;10.71;91.26;100301.43;87304;1277;22483;-80
2022/10/01 06:54:52;;;;;;;30.60;24.30;;;;;;;10.91;91.51;100299.41;87182;1288;23938;-80
2022/10/01 06:56:58;;;;;;;29.30;23.10;;;;;;;11.01;91.67;100296.23;87209;1295;22633;-80
2022/10/01 06:59:04;;;;;;;27.70;22.60;;;;;;;11.10;91.52;100294.08;87074;1287;22476;-78
2022/10/01 07:01:11;;;;;;;25.40;21.20;;;;;;;11.19;91.58;100291.64;87150;1284;22486;-79
2022/10/01 07:03:18;;;;;;;28.90;21.90;;;;;;;11.27;91.44;100291.63;87239;1285;22470;-81
2022/10/01 07:05:24;;;;;;;25.40;21.70;;;;;;;11.36;91.24;100291.25;87299;1306;22887;-80
2022/10/01 07:07:31;;;;;;;27.20;21.50;;;;;;;11.45;91.13;100292.10;87159;1306;22490;-79
2022/10/01 07:09:36;;;;;;;29.20;23.10;;;;;;;11.53;91.11;100295.08;87196;1306;23874;-77
2022/10/01 07:11:42;;;;;;;24.30;21.30;;;;;;;11.61;91.08;100292.44;87152;1284;22500;-76
2022/10/01 07:13:48;;;;;;;24.90;20.70;;;;;;;11.72;91.03;100289.00;87150;1306;22478;-78
2022/10/01 07:15:53;;;;;;;23.50;20.70;;;;;;;11.79;90.02;100288.70;87340;1305;22517;-78
2022/10/01 07:17:59;;;;;;;24.90;20.10;;;;;;;11.84;90.14;100288.48;87194;1284;24163;-77
2022/10/01 07:20:07;;;;;;;25.90;21.00;;;;;;;11.91;90.06;100288.88;87186;1284;24396;-76
2022/10/01 07:22:12;;;;;;;26.10;21.40;;;;;;;11.99;89.02;100285.25;87189;1306;24495;-77
2022/10/01 07:24:18;;;;;;;27.40;21.50;;;;;;;12.05;89.13;100281.11;87183;1304;22508;-78
2022/10/01 07:26:23;;;;;;;26.80;21.90;;;;;;;12.14;88.61;100279.44;87185;1298;22465;-76
2022/10/01 07:28:29;;;;;;;32.30;22.00;;;;;;;12.30;88.70;100279.25;87073;1306;22746;-79
2022/10/01 07:30:35;;;;;;;28.70;22.60;;;;;;;12.53;88.23;100278.34;87193;1306;22475;-75
2022/10/01 07:32:44;;;;;;;24.30;19.90;;;;;;;12.72;87.45;100281.96;87300;1288;22454;-79
2022/10/01 07:34:50;;;;;;;22.60;18.50;;;;;;;12.90;87.21;100280.39;87422;1292;22434;-80
2022/10/01 07:36:56;;;;;;;19.60;16.90;;;;;;;13.20;86.81;100283.49;87303;1298;26497;-79
2022/10/01 07:39:01;;;;;;;18.10;15.90;;;;;;;13.58;87.39;100284.90;87134;1306;22469;-78
2022/10/01 07:41:09;;;;;;;19.00;16.90;;;;;;;14.02;87.47;100286.95;87066;1287;22690;-78
2022/10/01 07:43:15;;;;;;;18.90;16.00;;;;;;;14.68;85.29;100290.52;87147;1291;25429;-78
2022/10/01 07:45:21;;;;;;;14.20;12.80;;;;;;;15.54;85.01;100288.02;87129;1282;22487;-78
2022/10/01 07:47:27;;;;;;;14.30;12.20;;;;;;;16.47;81.12;100284.70;87405;1297;22482;-78
2022/10/01 07:49:34;;;;;;;14.40;11.80;;;;;;;17.31;77.13;100280.84;87574;1284;22506;-79
2022/10/01 07:51:42;;;;;;;11.90;10.80;;;;;;;18.11;73.97;100283.63;87558;1298;25366;-79
2022/10/01 07:53:49;;;;;;;12.30;10.50;;;;;;;18.89;69.73;100283.97;87173;1306;22494;-78
2022/10/01 07:55:55;;;;;;;11.50;10.40;;;;;;;19.65;68.89;100284.13;87165;1306;24412;-78
2022/10/01 07:58:01;;;;;;;12.20;10.70;;;;;;;20.39;66.14;100284.52;87187;1283;22448;-78
2022/10/01 08:00:11;;;;;;;12.00;10.90;;;;;;;21.05;60.27;100286.91;87141;1298;22455;-78
2022/10/01 08:02:17;;;;;;;9.90;9.00;;;;;;;21.46;59.87;100285.83;87062;1306;23767;-78
2022/10/01 08:06:48;;;;;;;11.50;10.40;;;;;;;22.40;55.56;100294.17;87154;1306;24310;-77
2022/10/01 08:08:53;;;;;;;11.90;10.90;;;;;;;22.77;54.07;100291.94;87156;1284;22479;-77
2022/10/01 08:11:02;;;;;;;11.50;10.30;;;;;;;23.14;52.25;100287.48;87157;1305;22479;-78
2022/10/01 08:13:13;;;;;;;12.60;11.50;;;;;;;23.49;50.50;100281.96;87175;1297;22477;-77
2022/10/01 08:15:20;;;;;;;12.50;11.40;;;;;;;23.62;48.84;100275.39;87173;1306;22463;-79
2022/10/01 08:17:25;;;;;;;13.30;12.10;;;;;;;23.69;49.51;100272.29;87180;1293;22532;-77
2022/10/01 08:19:31;;;;;;;13.60;12.30;;;;;;;23.73;48.40;100265.69;87136;1306;23795;-77
2022/10/01 08:21:39;;;;;;;13.90;12.50;;;;;;;23.67;48.64;100258.75;87134;1278;25526;-80
2022/10/01 08:23:45;;;;;;;13.10;11.80;;;;;;;23.51;48.24;100262.88;87197;1298;24082;-79
2022/10/01 08:25:51;;;;;;;15.10;13.70;;;;;;;23.19;47.72;100260.88;87089;1293;22518;-79
2022/10/01 08:27:56;;;;;;;15.90;14.10;;;;;;;22.84;48.10;100262.52;87168;1306;24296;-79
2022/10/01 08:30:02;;;;;;;14.90;13.40;;;;;;;22.56;48.17;100263.55;87129;1281;26438;-79
2022/10/01 08:32:08;;;;;;;15.30;13.80;;;;;;;22.41;49.16;100263.38;87133;1298;22468;-78
2022/10/01 08:34:13;;;;;;;14.90;13.50;;;;;;;22.23;49.46;100262.83;87158;1298;22463;-77
2022/10/01 08:36:19;;;;;;;16.00;14.30;;;;;;;21.96;48.99;100255.70;87148;1306;22772;-79
2022/10/01 08:38:25;;;;;;;16.00;14.30;;;;;;;21.69;49.63;100252.95;87139;1283;26768;-77
2022/10/01 08:40:33;;;;;;;18.30;15.20;;;;;;;21.37;49.82;100250.85;87157;1306;22522;-77
2022/10/01 08:42:47;;;;;;;17.40;15.60;;;;;;;21.07;50.02;100248.27;87173;1299;22525;-77
2022/10/01 08:44:52;;;;;;;15.70;14.30;;;;;;;20.84;50.70;100242.58;87133;1306;22478;-78
2022/10/01 08:47:03;;;;;;;16.40;14.80;;;;;;;20.61;50.83;100243.76;87152;1306;22492;-78
2022/10/01 08:49:15;;;;;;;15.60;14.00;;;;;;;20.31;50.72;100243.85;87147;1287;22475;-78
2022/10/01 08:51:27;;;;;;;17.50;15.20;;;;;;;20.00;50.74;100244.89;87171;1301;24233;-79
2022/10/01 08:53:39;;;;;;;17.20;15.60;;;;;;;19.60;51.33;100246.48;86993;1307;22463;-79
2022/10/01 08:55:46;;;;;;;16.00;14.40;;;;;;;19.20;52.29;100247.23;87150;1305;23932;-78
2022/10/01 08:57:55;;;;;;;16.60;14.90;;;;;;;18.90;52.88;100243.80;87168;1294;22468;-78
2022/10/01 09:00:04;;;;;;;15.90;13.60;;;;;;;18.71;53.15;100238.73;87156;1285;25276;-78
2022/10/01 09:02:28;;;;;;;17.00;15.20;;;;;;;18.62;53.94;100235.81;87169;1305;24370;-79
2022/10/01 09:04:33;;;;;;;15.40;13.70;;;;;;;18.57;54.98;100231.55;87139;1306;22482;-78
2022/10/01 09:06:39;;;;;;;16.80;15.00;;;;;;;18.48;54.63;100232.92;87150;1306;22783;-78
2022/10/01 09:08:55;;;;;;;17.90;16.00;;;;;;;18.30;54.72;100232.45;87154;1290;22454;-79
2022/10/01 09:11:03;;;;;;;19.30;15.40;;;;;;;18.04;54.77;100231.34;87151;1283;22464;-79
2022/10/01 09:13:45;;;;;;;15.10;12.80;;;;;;;17.80;55.65;100235.52;87144;1300;22673;-79
2022/10/01 09:15:55;;;;;;;12.20;11.00;;;;;;;17.46;56.18;100231.85;87075;1306;22747;-79
2022/10/01 09:18:43;;;;;;;14.20;11.50;;;;;;;17.23;56.66;100226.36;87167;1304;22661;-79
2022/10/01 09:20:53;;;;;;;11.90;10.80;;;;;;;16.92;57.28;100228.11;86874;1308;22519;-79
2022/10/01 09:23:14;;;;;;;;;;;;;;;16.68;57.73;100221.70;87004;1301;26620;-78
2022/10/01 09:25:22;;;;;;;11.10;10.00;;;;;;;16.43;58.85;100221.60;86960;1309;22729;-78
2022/10/01 09:27:29;;;;;;;11.80;10.00;;;;;;;16.29;59.02;100222.15;87101;1309;22709;-80
2022/10/01 09:29:40;;;;;;;11.50;9.30;;;;;;;16.15;59.16;100221.50;87171;1309;22928;-79
2022/10/01 09:31:47;;;;;;;10.50;9.40;;;;;;;16.01;60.13;100220.05;87271;1309;24111;-79
2022/10/01 09:33:57;;;;;;;9.50;8.60;;;;;;;15.91;60.79;100222.27;86938;1309;22492;-79
2022/10/01 09:36:12;;;;;;;9.00;8.20;;;;;;;15.82;61.19;100224.95;86965;1309;22507;-79
2022/10/01 09:38:21;;;;;;;9.90;8.80;;;;;;;15.75;61.14;100220.83;87465;1287;25275;-79
2022/10/01 09:40:35;;;;;;;9.50;8.60;;;;;;;15.70;61.66;100219.36;87486;1306;22458;-79
2022/10/01 09:42:41;;;;;;;9.30;8.40;;;;;;;15.67;62.01;100218.68;87186;1290;22504;-78
2022/10/01 09:45:21;;;;;;;10.20;9.10;;;;;;;15.63;61.65;100219.75;87149;1287;22467;-80
2022/10/01 09:47:36;;;;;;;10.50;9.50;;;;;;;15.52;62.02;100218.18;87064;1305;22546;-79
2022/10/01 09:49:43;;;;;;;11.90;10.70;;;;;;;15.45;62.45;100217.67;87151;1291;22720;-78